AIQ3218 VTCT-VTBS
Flight info
| Callsign | AIQ3218 |
|---|---|
| Flight time | 1h 9m |
| Altitude | 33000 |
| Route | DUBEN1A DUBEN Y28 BLAFF DCT NORTA NORTA1D |
| Aircraft | A20N/M-SDE2E3FGHIRWXY/LB1 |
Departure
| Time | 2026-05-07 00:54 |
|---|---|
| Airport | Mae Fah Luang - Chiang Rai International Airport (VTCT) |
Arrival
| Time | 2026-05-07 02:03 |
|---|---|
| Airport | Suvarnabhumi Airport (VTBS) |
| Time | Latitude | Longitude | Altitude | Speed | Heading |
|---|---|---|---|---|---|
| 2026-05-07 00:37 | 19.95427 | 99.88006 | 1285 ft | 0 kts | 299° |
| 2026-05-07 00:46 | 19.95421 | 99.88020 | 1287 ft | 2 kts | 287° |
| 2026-05-07 00:46 | 19.95417 | 99.88037 | 1286 ft | 2 kts | 272° |
| 2026-05-07 00:46 | 19.95418 | 99.88055 | 1285 ft | 2 kts | 253° |
| 2026-05-07 00:46 | 19.95425 | 99.88071 | 1287 ft | 2 kts | 235° |
| 2026-05-07 00:47 | 19.95435 | 99.88085 | 1289 ft | 2 kts | 223° |
| 2026-05-07 00:47 | 19.95448 | 99.88096 | 1288 ft | 2 kts | 213° |
| 2026-05-07 00:47 | 19.95457 | 99.88102 | 1288 ft | 0 kts | 209° |
| 2026-05-07 00:49 | 19.95451 | 99.88098 | 1288 ft | 8 kts | 209° |
| 2026-05-07 00:49 | 19.95441 | 99.88092 | 1288 ft | 15 kts | 209° |
| 2026-05-07 00:49 | 19.95337 | 99.88030 | 1289 ft | 10 kts | 209° |
| 2026-05-07 00:49 | 19.95285 | 99.88037 | 1287 ft | 9 kts | 121° |
| 2026-05-07 00:50 | 19.95249 | 99.88107 | 1286 ft | 12 kts | 118° |
| 2026-05-07 00:50 | 19.95203 | 99.88199 | 1284 ft | 16 kts | 118° |
| 2026-05-07 00:50 | 19.95123 | 99.88247 | 1287 ft | 14 kts | 210° |
| 2026-05-07 00:50 | 19.95031 | 99.88190 | 1283 ft | 17 kts | 212° |
| 2026-05-07 00:51 | 19.94932 | 99.88121 | 1284 ft | 18 kts | 209° |
| 2026-05-07 00:51 | 19.94819 | 99.88054 | 1288 ft | 19 kts | 209° |
| 2026-05-07 00:51 | 19.94696 | 99.87982 | 1286 ft | 21 kts | 208° |
| 2026-05-07 00:51 | 19.94565 | 99.87906 | 1285 ft | 22 kts | 208° |
| 2026-05-07 00:52 | 19.94424 | 99.87826 | 1285 ft | 24 kts | 207° |
| 2026-05-07 00:52 | 19.94274 | 99.87742 | 1288 ft | 25 kts | 212° |
| 2026-05-07 00:52 | 19.94134 | 99.87629 | 1286 ft | 26 kts | 241° |
| 2026-05-07 00:52 | 19.94114 | 99.87595 | 1287 ft | 5 kts | 227° |
| 2026-05-07 00:53 | 19.94063 | 99.87600 | 1288 ft | 11 kts | 116° |
| 2026-05-07 00:53 | 19.94116 | 99.87645 | 1285 ft | 10 kts | 26° |
| 2026-05-07 00:53 | 19.94157 | 99.87667 | 1288 ft | 29 kts | 28° |
| 2026-05-07 00:53 | 19.94370 | 99.87792 | 1285 ft | 75 kts | 29° |
| 2026-05-07 00:54 | 19.95008 | 99.88166 | 1283 ft | 132 kts | 28° |
| 2026-05-07 00:54 | 19.95943 | 99.88716 | 1294 ft | 173 kts | 29° |
| 2026-05-07 00:54 | 19.97003 | 99.89361 | 1774 ft | 174 kts | 30° |
| 2026-05-07 00:54 | 19.98052 | 99.89991 | 2460 ft | 169 kts | 29° |
| 2026-05-07 00:55 | 19.99079 | 99.90574 | 3129 ft | 169 kts | 29° |
| 2026-05-07 00:55 | 20.00171 | 99.91192 | 3424 ft | 188 kts | 29° |
| 2026-05-07 00:55 | 20.01386 | 99.91895 | 3825 ft | 210 kts | 29° |
| 2026-05-07 00:55 | 20.02731 | 99.92681 | 4251 ft | 231 kts | 28° |
| 2026-05-07 00:56 | 20.04131 | 99.93681 | 4714 ft | 254 kts | 46° |
| 2026-05-07 00:56 | 20.05072 | 99.95304 | 5325 ft | 268 kts | 72° |
| 2026-05-07 00:56 | 20.05242 | 99.97328 | 5847 ft | 285 kts | 101° |
| 2026-05-07 00:56 | 20.04537 | 99.99307 | 6560 ft | 291 kts | 119° |
| 2026-05-07 00:57 | 20.03541 | 100.01191 | 6852 ft | 293 kts | 122° |
| 2026-05-07 00:57 | 20.02499 | 100.03058 | 6979 ft | 294 kts | 122° |
| 2026-05-07 00:57 | 20.01458 | 100.04937 | 7117 ft | 296 kts | 121° |
| 2026-05-07 00:57 | 20.00428 | 100.06843 | 7745 ft | 298 kts | 121° |
| 2026-05-07 00:58 | 19.99408 | 100.08760 | 8706 ft | 299 kts | 120° |
| 2026-05-07 00:58 | 19.98383 | 100.10698 | 9565 ft | 302 kts | 120° |
| 2026-05-07 00:58 | 19.97363 | 100.12639 | 10309 ft | 309 kts | 120° |
| 2026-05-07 00:58 | 19.96185 | 100.14645 | 10627 ft | 331 kts | 131° |
| 2026-05-07 00:59 | 19.92027 | 100.16981 | 11469 ft | 354 kts | 175° |
| 2026-05-07 00:59 | 19.89561 | 100.17215 | 12203 ft | 357 kts | 177° |
| 2026-05-07 00:59 | 19.87072 | 100.17404 | 12958 ft | 360 kts | 178° |
| 2026-05-07 01:00 | 19.84553 | 100.17595 | 13682 ft | 365 kts | 177° |
| 2026-05-07 01:00 | 19.82013 | 100.17800 | 14308 ft | 368 kts | 177° |
| 2026-05-07 01:00 | 19.79448 | 100.18017 | 14983 ft | 371 kts | 176° |
| 2026-05-07 01:00 | 19.76858 | 100.18242 | 15616 ft | 375 kts | 176° |
| 2026-05-07 01:01 | 19.74246 | 100.18471 | 16239 ft | 378 kts | 176° |
| 2026-05-07 01:01 | 19.71614 | 100.18701 | 16842 ft | 382 kts | 176° |
| 2026-05-07 01:01 | 19.68955 | 100.18934 | 17448 ft | 385 kts | 176° |
| 2026-05-07 01:01 | 19.66268 | 100.19170 | 18037 ft | 389 kts | 176° |
| 2026-05-07 01:02 | 19.63559 | 100.19407 | 18573 ft | 392 kts | 176° |
| 2026-05-07 01:02 | 19.60826 | 100.19645 | 19096 ft | 395 kts | 176° |
| 2026-05-07 01:02 | 19.58073 | 100.19885 | 19608 ft | 398 kts | 176° |
| 2026-05-07 01:02 | 19.55301 | 100.20127 | 20108 ft | 401 kts | 176° |
| 2026-05-07 01:03 | 19.52510 | 100.20334 | 20611 ft | 403 kts | 179° |
| 2026-05-07 01:03 | 19.49731 | 100.20428 | 21097 ft | 406 kts | 180° |
| 2026-05-07 01:03 | 19.46856 | 100.20490 | 21589 ft | 410 kts | 180° |
| 2026-05-07 01:03 | 19.44033 | 100.20554 | 22064 ft | 413 kts | 180° |
| 2026-05-07 01:04 | 19.41151 | 100.20631 | 22534 ft | 416 kts | 179° |
| 2026-05-07 01:04 | 19.38247 | 100.20718 | 23006 ft | 419 kts | 179° |
| 2026-05-07 01:04 | 19.35327 | 100.20810 | 23485 ft | 422 kts | 179° |
| 2026-05-07 01:04 | 19.32370 | 100.20907 | 23873 ft | 425 kts | 179° |
| 2026-05-07 01:05 | 19.29402 | 100.21004 | 24254 ft | 428 kts | 179° |
| 2026-05-07 01:05 | 19.26418 | 100.21102 | 24645 ft | 430 kts | 179° |
| 2026-05-07 01:05 | 19.23413 | 100.21200 | 25024 ft | 433 kts | 179° |
| 2026-05-07 01:05 | 19.20393 | 100.21298 | 25381 ft | 436 kts | 179° |
| 2026-05-07 01:06 | 19.17351 | 100.21397 | 25735 ft | 438 kts | 180° |
| 2026-05-07 01:06 | 19.14294 | 100.21496 | 26094 ft | 441 kts | 180° |
| 2026-05-07 01:06 | 19.11217 | 100.21596 | 26440 ft | 443 kts | 180° |
| 2026-05-07 01:06 | 19.08128 | 100.21696 | 26772 ft | 446 kts | 180° |
| 2026-05-07 01:07 | 19.05014 | 100.21797 | 27101 ft | 448 kts | 180° |
| 2026-05-07 01:07 | 19.01976 | 100.21895 | 27414 ft | 450 kts | 180° |
| 2026-05-07 01:07 | 18.98834 | 100.21997 | 27727 ft | 453 kts | 180° |
| 2026-05-07 01:07 | 18.95675 | 100.22099 | 28038 ft | 455 kts | 180° |
| 2026-05-07 01:08 | 18.92534 | 100.22200 | 28338 ft | 457 kts | 180° |
| 2026-05-07 01:08 | 18.89349 | 100.22303 | 28636 ft | 460 kts | 180° |
| 2026-05-07 01:08 | 18.86145 | 100.22407 | 28933 ft | 462 kts | 180° |
| 2026-05-07 01:08 | 18.82924 | 100.22510 | 29209 ft | 464 kts | 180° |
| 2026-05-07 01:09 | 18.79689 | 100.22615 | 29485 ft | 466 kts | 180° |
| 2026-05-07 01:09 | 18.76433 | 100.22720 | 29777 ft | 469 kts | 180° |
| 2026-05-07 01:09 | 18.73170 | 100.22827 | 30056 ft | 471 kts | 180° |
| 2026-05-07 01:09 | 18.69882 | 100.22934 | 30303 ft | 473 kts | 180° |
| 2026-05-07 01:10 | 18.66588 | 100.23041 | 30565 ft | 475 kts | 180° |
| 2026-05-07 01:10 | 18.63276 | 100.23149 | 30836 ft | 476 kts | 180° |
| 2026-05-07 01:10 | 18.59956 | 100.23257 | 31117 ft | 478 kts | 180° |
| 2026-05-07 01:10 | 18.56635 | 100.23365 | 31444 ft | 478 kts | 180° |
| 2026-05-07 01:11 | 18.53313 | 100.23473 | 31789 ft | 477 kts | 180° |
| 2026-05-07 01:11 | 18.50053 | 100.23580 | 32123 ft | 477 kts | 180° |
| 2026-05-07 01:11 | 18.46682 | 100.23689 | 32474 ft | 476 kts | 180° |
| 2026-05-07 01:11 | 18.43414 | 100.23795 | 32786 ft | 475 kts | 180° |
| 2026-05-07 01:12 | 18.40111 | 100.23902 | 32892 ft | 474 kts | 180° |
| 2026-05-07 01:12 | 18.33517 | 100.24114 | 32908 ft | 474 kts | 180° |
| 2026-05-07 01:13 | 18.26927 | 100.24329 | 32907 ft | 474 kts | 180° |
| 2026-05-07 01:13 | 18.20337 | 100.24543 | 32906 ft | 474 kts | 180° |
| 2026-05-07 01:14 | 18.13735 | 100.24756 | 32909 ft | 474 kts | 180° |
| 2026-05-07 01:14 | 18.07140 | 100.24969 | 32909 ft | 474 kts | 180° |
| 2026-05-07 01:15 | 18.00538 | 100.25182 | 32908 ft | 474 kts | 180° |
| 2026-05-07 01:15 | 17.93941 | 100.25395 | 32897 ft | 474 kts | 180° |
| 2026-05-07 01:16 | 17.87392 | 100.25606 | 32885 ft | 474 kts | 180° |
| 2026-05-07 01:16 | 17.80805 | 100.25818 | 32890 ft | 474 kts | 180° |
| 2026-05-07 01:17 | 17.74207 | 100.26030 | 32880 ft | 474 kts | 180° |
| 2026-05-07 01:17 | 17.67613 | 100.26242 | 32875 ft | 474 kts | 180° |
| 2026-05-07 01:18 | 17.61010 | 100.26455 | 32881 ft | 475 kts | 180° |
| 2026-05-07 01:18 | 17.54403 | 100.26667 | 32879 ft | 475 kts | 180° |
| 2026-05-07 01:19 | 17.47790 | 100.26878 | 32875 ft | 476 kts | 180° |
| 2026-05-07 01:19 | 17.41167 | 100.27090 | 32888 ft | 476 kts | 180° |
| 2026-05-07 01:20 | 17.34535 | 100.27303 | 32888 ft | 477 kts | 180° |
| 2026-05-07 01:20 | 17.27890 | 100.27515 | 32887 ft | 477 kts | 179° |
| 2026-05-07 01:21 | 17.21251 | 100.27727 | 32889 ft | 477 kts | 179° |
| 2026-05-07 01:21 | 17.14651 | 100.27938 | 32890 ft | 477 kts | 179° |
| 2026-05-07 01:22 | 17.08022 | 100.28149 | 32890 ft | 476 kts | 179° |
| 2026-05-07 01:22 | 17.01400 | 100.28360 | 32885 ft | 476 kts | 179° |
| 2026-05-07 01:23 | 16.94785 | 100.28571 | 32888 ft | 475 kts | 179° |
| 2026-05-07 01:23 | 16.88178 | 100.28781 | 32889 ft | 474 kts | 179° |
| 2026-05-07 01:24 | 16.81584 | 100.28991 | 32889 ft | 473 kts | 179° |
| 2026-05-07 01:24 | 16.74995 | 100.29188 | 32887 ft | 473 kts | 180° |
| 2026-05-07 01:25 | 16.68427 | 100.29205 | 32879 ft | 472 kts | 181° |
| 2026-05-07 01:25 | 16.61860 | 100.29203 | 32877 ft | 471 kts | 180° |
| 2026-05-07 01:26 | 16.55339 | 100.29222 | 32874 ft | 471 kts | 180° |
| 2026-05-07 01:26 | 16.48777 | 100.29247 | 32868 ft | 472 kts | 180° |
| 2026-05-07 01:27 | 16.42205 | 100.29273 | 32865 ft | 472 kts | 180° |
| 2026-05-07 01:27 | 16.35634 | 100.29300 | 32866 ft | 472 kts | 180° |
| 2026-05-07 01:28 | 16.29054 | 100.29327 | 32868 ft | 473 kts | 180° |
| 2026-05-07 01:28 | 16.22474 | 100.29354 | 32868 ft | 473 kts | 180° |
| 2026-05-07 01:29 | 16.15886 | 100.29381 | 32869 ft | 473 kts | 180° |
| 2026-05-07 01:29 | 16.09293 | 100.29409 | 32874 ft | 474 kts | 180° |
| 2026-05-07 01:30 | 16.02691 | 100.29437 | 32876 ft | 474 kts | 180° |
| 2026-05-07 01:30 | 15.96130 | 100.29465 | 32879 ft | 475 kts | 180° |
| 2026-05-07 01:31 | 15.89520 | 100.29492 | 32885 ft | 475 kts | 180° |
| 2026-05-07 01:31 | 15.82907 | 100.29520 | 32886 ft | 475 kts | 180° |
| 2026-05-07 01:32 | 15.76292 | 100.29547 | 32881 ft | 475 kts | 180° |
| 2026-05-07 01:32 | 15.69692 | 100.29575 | 32881 ft | 474 kts | 180° |
| 2026-05-07 01:33 | 15.63101 | 100.29603 | 32882 ft | 474 kts | 180° |
| 2026-05-07 01:33 | 15.56505 | 100.29630 | 32880 ft | 474 kts | 180° |
| 2026-05-07 01:34 | 15.49958 | 100.29657 | 32886 ft | 473 kts | 180° |
| 2026-05-07 01:34 | 15.43365 | 100.29684 | 32884 ft | 474 kts | 180° |
| 2026-05-07 01:35 | 15.36776 | 100.29712 | 32883 ft | 474 kts | 180° |
| 2026-05-07 01:35 | 15.30196 | 100.29973 | 32886 ft | 474 kts | 171° |
| 2026-05-07 01:36 | 15.23941 | 100.32035 | 32882 ft | 473 kts | 153° |
| 2026-05-07 01:36 | 15.18262 | 100.35483 | 32887 ft | 473 kts | 149° |
| 2026-05-07 01:37 | 15.12596 | 100.38966 | 32892 ft | 473 kts | 149° |
| 2026-05-07 01:37 | 15.06961 | 100.42422 | 32893 ft | 473 kts | 149° |
| 2026-05-07 01:38 | 15.01301 | 100.45892 | 32900 ft | 473 kts | 149° |
| 2026-05-07 01:38 | 14.95644 | 100.49358 | 32897 ft | 472 kts | 149° |
| 2026-05-07 01:38 | 14.92820 | 100.51087 | 32660 ft | 470 kts | 149° |
| 2026-05-07 01:39 | 14.90013 | 100.52805 | 32001 ft | 471 kts | 149° |
| 2026-05-07 01:39 | 14.87171 | 100.54545 | 31084 ft | 476 kts | 149° |
| 2026-05-07 01:39 | 14.84300 | 100.56301 | 30023 ft | 484 kts | 149° |
| 2026-05-07 01:39 | 14.81381 | 100.58088 | 28878 ft | 489 kts | 149° |
| 2026-05-07 01:40 | 14.78468 | 100.59869 | 28250 ft | 482 kts | 148° |
| 2026-05-07 01:40 | 14.75650 | 100.61592 | 27976 ft | 460 kts | 148° |
| 2026-05-07 01:40 | 14.72919 | 100.63182 | 27673 ft | 444 kts | 153° |
| 2026-05-07 01:40 | 14.70099 | 100.64431 | 27140 ft | 440 kts | 160° |
| 2026-05-07 01:41 | 14.67181 | 100.65362 | 26555 ft | 437 kts | 163° |
| 2026-05-07 01:41 | 14.64273 | 100.66244 | 26015 ft | 433 kts | 162° |
| 2026-05-07 01:41 | 14.61396 | 100.67125 | 25496 ft | 429 kts | 162° |
| 2026-05-07 01:41 | 14.58542 | 100.68003 | 24979 ft | 426 kts | 162° |
| 2026-05-07 01:42 | 14.55751 | 100.68862 | 24467 ft | 422 kts | 162° |
| 2026-05-07 01:42 | 14.52952 | 100.69724 | 23981 ft | 419 kts | 162° |
| 2026-05-07 01:42 | 14.50166 | 100.70581 | 23479 ft | 416 kts | 162° |
| 2026-05-07 01:42 | 14.47372 | 100.71440 | 22901 ft | 412 kts | 162° |
| 2026-05-07 01:43 | 14.44667 | 100.72244 | 22369 ft | 408 kts | 165° |
| 2026-05-07 01:43 | 14.41879 | 100.72755 | 21802 ft | 406 kts | 172° |
| 2026-05-07 01:43 | 14.39082 | 100.73052 | 21265 ft | 403 kts | 172° |
| 2026-05-07 01:43 | 14.36306 | 100.73355 | 20739 ft | 399 kts | 172° |
| 2026-05-07 01:44 | 14.34442 | 100.73562 | 20386 ft | 397 kts | 172° |
| 2026-05-07 01:44 | 14.30823 | 100.73965 | 19711 ft | 393 kts | 172° |
| 2026-05-07 01:44 | 14.29024 | 100.74166 | 19375 ft | 391 kts | 172° |
| 2026-05-07 01:44 | 14.26295 | 100.74470 | 18875 ft | 388 kts | 172° |
| 2026-05-07 01:45 | 14.23620 | 100.74768 | 18404 ft | 385 kts | 172° |
| 2026-05-07 01:45 | 14.20961 | 100.75065 | 17883 ft | 382 kts | 172° |
| 2026-05-07 01:45 | 14.18332 | 100.75358 | 17357 ft | 379 kts | 172° |
| 2026-05-07 01:45 | 14.15717 | 100.75649 | 16853 ft | 376 kts | 172° |
| 2026-05-07 01:46 | 14.13154 | 100.75840 | 16347 ft | 374 kts | 179° |
| 2026-05-07 01:46 | 14.10536 | 100.75625 | 15882 ft | 372 kts | 188° |
| 2026-05-07 01:46 | 14.08056 | 100.75027 | 15738 ft | 359 kts | 193° |
| 2026-05-07 01:46 | 14.05712 | 100.74392 | 15635 ft | 347 kts | 193° |
| 2026-05-07 01:47 | 14.03422 | 100.73786 | 15479 ft | 335 kts | 193° |
| 2026-05-07 01:47 | 14.01172 | 100.73194 | 15110 ft | 332 kts | 193° |
| 2026-05-07 01:47 | 13.98941 | 100.72608 | 14720 ft | 330 kts | 193° |
| 2026-05-07 01:47 | 13.96719 | 100.72022 | 14342 ft | 329 kts | 193° |
| 2026-05-07 01:48 | 13.94547 | 100.71448 | 13976 ft | 326 kts | 193° |
| 2026-05-07 01:48 | 13.92350 | 100.70866 | 13602 ft | 325 kts | 193° |
| 2026-05-07 01:48 | 13.90167 | 100.70286 | 13187 ft | 323 kts | 193° |
| 2026-05-07 01:48 | 13.88000 | 100.69712 | 12805 ft | 320 kts | 193° |
| 2026-05-07 01:49 | 13.85846 | 100.69143 | 12411 ft | 318 kts | 193° |
| 2026-05-07 01:49 | 13.83713 | 100.68580 | 12133 ft | 312 kts | 193° |
| 2026-05-07 01:49 | 13.81648 | 100.68032 | 12024 ft | 300 kts | 193° |
| 2026-05-07 01:49 | 13.79670 | 100.67508 | 11922 ft | 289 kts | 193° |
| 2026-05-07 01:50 | 13.77759 | 100.67002 | 11775 ft | 279 kts | 193° |
| 2026-05-07 01:50 | 13.75882 | 100.66506 | 11446 ft | 277 kts | 193° |
| 2026-05-07 01:50 | 13.74018 | 100.66014 | 11142 ft | 276 kts | 192° |
| 2026-05-07 01:50 | 13.72172 | 100.65526 | 10794 ft | 273 kts | 192° |
| 2026-05-07 01:51 | 13.70331 | 100.65040 | 10397 ft | 272 kts | 192° |
| 2026-05-07 01:51 | 13.68499 | 100.64557 | 10007 ft | 271 kts | 192° |
| 2026-05-07 01:51 | 13.66682 | 100.64077 | 9609 ft | 269 kts | 192° |
| 2026-05-07 01:51 | 13.64873 | 100.63600 | 9198 ft | 267 kts | 192° |
| 2026-05-07 01:52 | 13.63075 | 100.63126 | 8788 ft | 266 kts | 192° |
| 2026-05-07 01:52 | 13.61288 | 100.62653 | 8389 ft | 264 kts | 193° |
| 2026-05-07 01:52 | 13.59514 | 100.62186 | 7996 ft | 263 kts | 193° |
| 2026-05-07 01:52 | 13.57749 | 100.61721 | 7616 ft | 261 kts | 193° |
| 2026-05-07 01:53 | 13.55997 | 100.61260 | 7259 ft | 259 kts | 193° |
| 2026-05-07 01:53 | 13.54251 | 100.60798 | 6898 ft | 257 kts | 193° |
| 2026-05-07 01:53 | 13.52517 | 100.60342 | 6509 ft | 257 kts | 193° |
| 2026-05-07 01:53 | 13.50793 | 100.59888 | 6141 ft | 255 kts | 193° |
| 2026-05-07 01:54 | 13.49081 | 100.59438 | 5760 ft | 253 kts | 193° |
| 2026-05-07 01:54 | 13.47381 | 100.58990 | 5388 ft | 251 kts | 193° |
| 2026-05-07 01:54 | 13.45683 | 100.58570 | 4987 ft | 250 kts | 186° |
| 2026-05-07 01:54 | 13.43996 | 100.58766 | 4511 ft | 249 kts | 156° |
| 2026-05-07 01:55 | 13.42634 | 100.59806 | 4151 ft | 244 kts | 125° |
| 2026-05-07 01:55 | 13.41991 | 100.61374 | 4042 ft | 243 kts | 101° |
| 2026-05-07 01:55 | 13.41661 | 100.63099 | 4009 ft | 246 kts | 101° |
| 2026-05-07 01:55 | 13.41325 | 100.64797 | 4008 ft | 236 kts | 101° |
| 2026-05-07 01:56 | 13.41025 | 100.66390 | 4005 ft | 218 kts | 95° |
| 2026-05-07 01:56 | 13.41287 | 100.67833 | 4003 ft | 201 kts | 59° |
| 2026-05-07 01:56 | 13.42218 | 100.68783 | 4020 ft | 179 kts | 32° |
| 2026-05-07 01:56 | 13.43275 | 100.69259 | 3995 ft | 155 kts | 19° |
| 2026-05-07 01:57 | 13.44306 | 100.69555 | 3990 ft | 149 kts | 16° |
| 2026-05-07 01:57 | 13.45286 | 100.69809 | 3857 ft | 145 kts | 17° |
| 2026-05-07 01:57 | 13.46260 | 100.70066 | 3696 ft | 144 kts | 16° |
| 2026-05-07 01:57 | 13.47232 | 100.70322 | 3523 ft | 143 kts | 16° |
| 2026-05-07 01:58 | 13.48196 | 100.70576 | 3346 ft | 143 kts | 17° |
| 2026-05-07 01:58 | 13.49162 | 100.70830 | 3180 ft | 143 kts | 17° |
| 2026-05-07 01:58 | 13.50122 | 100.71084 | 2995 ft | 143 kts | 16° |
| 2026-05-07 01:58 | 13.51091 | 100.71339 | 2819 ft | 144 kts | 16° |
| 2026-05-07 01:59 | 13.52053 | 100.71593 | 2633 ft | 143 kts | 16° |
| 2026-05-07 01:59 | 13.53015 | 100.71847 | 2459 ft | 143 kts | 16° |
| 2026-05-07 01:59 | 13.53985 | 100.72103 | 2269 ft | 142 kts | 15° |
| 2026-05-07 01:59 | 13.54934 | 100.72353 | 2077 ft | 143 kts | 15° |
| 2026-05-07 02:00 | 13.55897 | 100.72607 | 1906 ft | 141 kts | 14° |
| 2026-05-07 02:00 | 13.56860 | 100.72862 | 1714 ft | 143 kts | 14° |
| 2026-05-07 02:00 | 13.57821 | 100.73116 | 1533 ft | 141 kts | 15° |
| 2026-05-07 02:00 | 13.58783 | 100.73366 | 1342 ft | 142 kts | 15° |
| 2026-05-07 02:01 | 13.59748 | 100.73619 | 1163 ft | 143 kts | 14° |
| 2026-05-07 02:01 | 13.60693 | 100.73868 | 979 ft | 137 kts | 15° |
| 2026-05-07 02:01 | 13.61633 | 100.74120 | 817 ft | 140 kts | 15° |
| 2026-05-07 02:01 | 13.61939 | 100.74200 | 761 ft | 140 kts | 14° |
| 2026-05-07 02:02 | 13.62933 | 100.74459 | 549 ft | 141 kts | 15° |
| 2026-05-07 02:02 | 13.63860 | 100.74699 | 400 ft | 138 kts | 17° |
| 2026-05-07 02:02 | 13.64782 | 100.74945 | 236 ft | 135 kts | 16° |
| 2026-05-07 02:03 | 13.65695 | 100.75188 | 89 ft | 135 kts | 16° |
| 2026-05-07 02:03 | 13.66580 | 100.75438 | 14 ft | 124 kts | 13° |
| 2026-05-07 02:03 | 13.67234 | 100.75601 | 13 ft | 68 kts | 13° |
| 2026-05-07 02:03 | 13.67547 | 100.75680 | 11 ft | 41 kts | 15° |
| 2026-05-07 02:04 | 13.67819 | 100.75743 | 11 ft | 39 kts | 4° |
| 2026-05-07 02:04 | 13.68064 | 100.75702 | 12 ft | 35 kts | 343° |
| 2026-05-07 02:04 | 13.68265 | 100.75676 | 14 ft | 29 kts | 12° |
| 2026-05-07 02:04 | 13.68460 | 100.75726 | 13 ft | 29 kts | 14° |
| 2026-05-07 02:05 | 13.68661 | 100.75780 | 13 ft | 30 kts | 15° |
| 2026-05-07 02:05 | 13.68786 | 100.75800 | 13 ft | 10 kts | 343° |
| 2026-05-07 02:05 | 13.68817 | 100.75734 | 13 ft | 12 kts | 282° |
| 2026-05-07 02:05 | 13.68841 | 100.75636 | 13 ft | 16 kts | 286° |
| 2026-05-07 02:06 | 13.68870 | 100.75549 | 13 ft | 0 kts | 319° |
| 2026-05-07 02:06 | 13.68898 | 100.75561 | 13 ft | 10 kts | 25° |
| 2026-05-07 02:06 | 13.68946 | 100.75577 | 13 ft | 0 kts | 14° |